Time;durP1;ratioP1;P1;durP2;ratioP2;P2;SDS_P1;SDS_P2;PMS_P1;PMS_P2;Temp;Humidity;BMP_temperature;BMP_pressure;BME280_temperature;BME280_humidity;BME280_pressure;Samples;Min_cycle;Max_cycle;Signal;HPM_P1;HPM_P2
2022/09/03 00:00:32;;;;;;;2.15;1.30;;;19.30;61.10;;;;;;5052815;28;20374;-78
2022/09/03 00:03:03;;;;;;;2.15;1.40;;;19.20;61.20;;;;;;5045206;28;20137;-78
2022/09/03 00:05:54;;;;;;;4.50;1.50;;;19.20;61.30;;;;;;5040643;28;20091;-76
2022/09/03 00:08:38;;;;;;;3.30;1.63;;;19.20;61.50;;;;;;5042052;28;20492;-76
2022/09/03 00:11:19;;;;;;;5.57;1.25;;;19.20;61.60;;;;;;5043660;28;20076;-76
2022/09/03 00:14:02;;;;;;;3.03;1.35;;;19.20;61.60;;;;;;5036948;28;20024;-75
2022/09/03 00:16:40;;;;;;;2.67;1.40;;;19.10;61.60;;;;;;5039974;28;20410;-75
2022/09/03 00:19:06;;;;;;;1.88;1.25;;;19.10;61.80;;;;;;5041001;28;20041;-76
2022/09/03 00:21:43;;;;;;;1.58;1.33;;;19.10;61.90;;;;;;5046435;28;20407;-75
2022/09/03 00:24:13;;;;;;;1.35;1.25;;;19.10;62.00;;;;;;5043798;28;20037;-77
2022/09/03 00:26:46;;;;;;;5.63;1.55;;;19.00;62.20;;;;;;5039661;28;20068;-77
2022/09/03 00:29:16;;;;;;;4.85;1.50;;;19.00;62.30;;;;;;5048570;28;20021;-76
2022/09/03 00:31:52;;;;;;;1.92;1.23;;;18.90;62.40;;;;;;5037946;28;20162;-76
2022/09/03 00:34:26;;;;;;;2.08;1.10;;;18.90;62.60;;;;;;5039329;28;20035;-78
2022/09/03 00:36:52;;;;;;;1.30;1.20;;;18.90;63.00;;;;;;5042596;28;20021;-76
2022/09/03 00:39:21;;;;;;;2.05;1.25;;;18.80;62.90;;;;;;5042558;28;20040;-75
2022/09/03 00:41:53;;;;;;;1.85;1.30;;;18.80;63.10;;;;;;5036389;28;20025;-76
2022/09/03 00:44:21;;;;;;;6.38;1.33;;;18.80;63.30;;;;;;5038974;28;20047;-75
2022/09/03 00:46:59;;;;;;;4.95;1.50;;;18.80;63.50;;;;;;5039716;28;20116;-76
2022/09/03 00:49:36;;;;;;;2.72;1.50;;;18.70;63.50;;;;;;5042421;28;20445;-76
2022/09/03 00:52:23;;;;;;;4.95;1.35;;;18.70;63.60;;;;;;5045749;28;20029;-78
2022/09/03 00:54:58;;;;;;;3.83;1.40;;;18.70;63.80;;;;;;5046994;28;20033;-76
2022/09/03 00:57:43;;;;;;;1.80;1.27;;;18.60;64.10;;;;;;5058891;28;20038;-79
2022/09/03 01:00:20;;;;;;;3.97;1.30;;;18.50;64.30;;;;;;5042820;28;20135;-78
2022/09/03 01:02:58;;;;;;;6.28;1.48;;;18.50;64.50;;;;;;5046989;28;20017;-76
2022/09/03 01:05:30;;;;;;;3.15;1.30;;;18.50;65.00;;;;;;5040764;28;20104;-80
2022/09/03 01:08:24;;;;;;;5.30;1.30;;;18.40;65.10;;;;;;5052111;28;20021;-81
2022/09/03 01:11:06;;;;;;;2.03;1.30;;;18.30;65.20;;;;;;5043623;28;20033;-79
2022/09/03 01:14:16;;;;;;;10.23;1.48;;;18.30;65.50;;;;;;5047635;28;20017;-77
2022/09/03 01:17:02;;;;;;;2.65;1.40;;;18.30;65.80;;;;;;5032349;28;20033;-77
2022/09/03 01:19:52;;;;;;;2.55;1.45;;;18.20;66.00;;;;;;5043182;28;20021;-77
2022/09/03 01:22:19;;;;;;;4.30;1.52;;;18.20;66.30;;;;;;5054839;28;20026;-77
2022/09/03 01:25:06;;;;;;;1.88;1.30;;;18.20;66.40;;;;;;5038272;28;20022;-77
2022/09/03 01:27:49;;;;;;;8.68;1.23;;;18.10;66.40;;;;;;5039086;28;20451;-77
2022/09/03 01:30:19;;;;;;;1.45;1.08;;;18.10;66.50;;;;;;5057711;28;20032;-76
2022/09/03 01:32:51;;;;;;;3.35;1.52;;;18.00;66.70;;;;;;5037736;28;20056;-77
2022/09/03 01:35:31;;;;;;;2.97;1.50;;;18.00;66.90;;;;;;5024686;28;20119;-77
2022/09/03 01:38:11;;;;;;;2.15;1.30;;;18.00;67.00;;;;;;5045383;28;20043;-77
2022/09/03 01:40:46;;;;;;;3.90;1.35;;;18.00;67.20;;;;;;5035185;28;20032;-78
2022/09/03 01:44:03;;;;;;;5.07;1.55;;;17.90;67.40;;;;;;5052009;28;20021;-78
2022/09/03 01:46:44;;;;;;;2.38;1.30;;;17.90;67.50;;;;;;5027887;28;20082;-77
2022/09/03 01:49:24;;;;;;;1.55;1.35;;;17.90;67.70;;;;;;5038268;28;20020;-77
2022/09/03 01:52:02;;;;;;;3.10;1.58;;;17.80;68.00;;;;;;5038958;28;20030;-76
2022/09/03 01:54:40;;;;;;;3.30;1.20;;;17.80;68.00;;;;;;5034601;28;20029;-77
2022/09/03 01:57:37;;;;;;;2.40;1.10;;;17.80;68.20;;;;;;5041315;28;20028;-77
2022/09/03 02:00:30;;;;;;;2.92;1.42;;;17.80;68.40;;;;;;5038391;28;20021;-77
2022/09/03 02:03:04;;;;;;;2.58;1.40;;;17.70;68.80;;;;;;5036802;28;20056;-76
2022/09/03 02:05:30;;;;;;;1.77;1.15;;;17.60;68.90;;;;;;5037917;28;20565;-75
2022/09/03 02:08:00;;;;;;;2.03;1.40;;;17.60;69.10;;;;;;5051804;28;20414;-77
2022/09/03 02:10:34;;;;;;;2.25;1.05;;;17.60;69.30;;;;;;5037130;28;20025;-77
2022/09/03 02:13:14;;;;;;;1.58;1.33;;;17.60;69.40;;;;;;5026214;28;20120;-78
2022/09/03 02:15:47;;;;;;;2.30;1.30;;;17.60;69.60;;;;;;5054985;28;20496;-77
2022/09/03 02:18:18;;;;;;;6.93;1.10;;;17.50;69.80;;;;;;5037920;28;20104;-77
2022/09/03 02:20:46;;;;;;;2.22;1.10;;;17.50;70.00;;;;;;5039559;28;20036;-77
2022/09/03 02:23:13;;;;;;;2.63;1.15;;;17.50;70.20;;;;;;5037695;28;20116;-77
2022/09/03 02:25:43;;;;;;;5.38;1.13;;;17.50;70.30;;;;;;5038984;28;20195;-76
2022/09/03 02:28:10;;;;;;;1.83;1.15;;;17.40;70.40;;;;;;5045640;28;20036;-75
2022/09/03 02:30:36;;;;;;;4.47;1.60;;;17.40;70.60;;;;;;5035767;28;20032;-76
2022/09/03 02:33:06;;;;;;;1.50;1.10;;;17.40;70.70;;;;;;5043562;28;20495;-78
2022/09/03 02:35:35;;;;;;;5.18;1.38;;;17.40;70.80;;;;;;5033523;28;20025;-76
2022/09/03 02:38:15;;;;;;;2.15;1.20;;;17.40;71.00;;;;;;5036752;28;20030;-77
2022/09/03 02:40:42;;;;;;;7.13;1.23;;;17.40;71.20;;;;;;5040202;28;20430;-77
2022/09/03 02:43:33;;;;;;;2.42;1.30;;;17.30;71.20;;;;;;5039196;28;20060;-77
2022/09/03 02:46:03;;;;;;;3.83;1.02;;;17.30;71.40;;;;;;5037062;28;20042;-77
2022/09/03 02:48:29;;;;;;;2.58;1.15;;;17.30;71.60;;;;;;5036976;28;20146;-78
2022/09/03 02:50:55;;;;;;;1.90;1.20;;;17.30;71.70;;;;;;5044022;28;20022;-77
2022/09/03 02:53:23;;;;;;;4.43;1.30;;;17.20;71.80;;;;;;5045072;28;20079;-77
2022/09/03 02:55:51;;;;;;;1.08;0.93;;;17.20;72.00;;;;;;5037778;28;20028;-77
2022/09/03 02:58:16;;;;;;;3.35;1.10;;;17.20;72.00;;;;;;5037631;28;20029;-78
2022/09/03 03:00:42;;;;;;;3.63;1.20;;;17.20;72.20;;;;;;5038289;28;20036;-77
2022/09/03 03:03:08;;;;;;;1.95;1.40;;;17.20;72.20;;;;;;5038508;28;20360;-77
2022/09/03 03:05:55;;;;;;;2.45;1.33;;;17.20;72.40;;;;;;5036995;28;20116;-76
2022/09/03 03:08:26;;;;;;;1.20;1.05;;;17.20;72.40;;;;;;5042598;28;20035;-78
2022/09/03 03:10:54;;;;;;;1.77;1.00;;;17.10;72.60;;;;;;5039839;28;20036;-77
2022/09/03 03:13:19;;;;;;;2.03;0.95;;;17.20;72.80;;;;;;5052919;28;20477;-77
2022/09/03 03:15:46;;;;;;;2.45;1.25;;;17.10;72.80;;;;;;5034274;28;20113;-78
2022/09/03 03:18:12;;;;;;;2.88;1.08;;;17.10;72.90;;;;;;5038125;28;20028;-78
2022/09/03 03:20:39;;;;;;;2.58;1.02;;;17.10;73.00;;;;;;5038011;28;20051;-77
2022/09/03 03:23:06;;;;;;;5.32;1.15;;;17.10;73.20;;;;;;5034622;28;20025;-74
2022/09/03 03:25:37;;;;;;;3.40;1.45;;;17.10;73.40;;;;;;5038934;28;20047;-77
2022/09/03 03:28:04;;;;;;;9.05;1.50;;;17.10;73.20;;;;;;5040465;28;20061;-77
2022/09/03 03:30:31;;;;;;;1.67;0.90;;;17.10;73.40;;;;;;5040776;28;20033;-77
2022/09/03 03:32:57;;;;;;;2.45;1.10;;;17.00;73.70;;;;;;5043038;28;20359;-76
2022/09/03 03:35:23;;;;;;;6.10;1.25;;;17.00;73.90;;;;;;5042132;28;20032;-77
2022/09/03 03:37:49;;;;;;;3.83;1.15;;;17.00;74.20;;;;;;5044719;28;20048;-77
2022/09/03 03:40:15;;;;;;;4.47;1.20;;;16.90;74.60;;;;;;5042170;28;20029;-77
2022/09/03 03:42:41;;;;;;;1.27;1.17;;;16.90;74.90;;;;;;5044389;28;20036;-78
2022/09/03 03:45:10;;;;;;;1.65;1.00;;;16.80;75.00;;;;;;5042295;28;20326;-77
2022/09/03 03:47:36;;;;;;;5.15;1.30;;;16.80;75.20;;;;;;5041912;28;20026;-76
2022/09/03 03:50:02;;;;;;;1.13;1.00;;;16.80;75.40;;;;;;5043015;28;20132;-77
2022/09/03 03:52:31;;;;;;;1.55;1.10;;;16.80;75.70;;;;;;5046196;28;20139;-77
2022/09/03 03:54:56;;;;;;;2.47;1.27;;;16.80;75.70;;;;;;5043650;28;20040;-76
2022/09/03 03:57:22;;;;;;;2.28;1.23;;;16.70;75.90;;;;;;5047176;28;20037;-77
2022/09/03 03:59:48;;;;;;;1.10;1.00;;;16.70;76.00;;;;;;5044664;28;20025;-77
2022/09/03 04:02:15;;;;;;;1.10;1.00;;;16.70;76.20;;;;;;5046951;28;20476;-75
2022/09/03 04:04:41;;;;;;;0.80;0.80;;;16.70;76.50;;;;;;5049661;28;20025;-79
2022/09/03 04:07:09;;;;;;;4.07;1.55;;;16.70;76.70;;;;;;5047682;28;20035;-78
2022/09/03 04:09:37;;;;;;;4.68;1.40;;;16.70;77.00;;;;;;5045506;28;20442;-77
2022/09/03 04:12:07;;;;;;;2.15;1.23;;;16.60;77.10;;;;;;5047956;28;20114;-77
2022/09/03 04:14:37;;;;;;;1.77;1.40;;;16.60;77.30;;;;;;5040890;28;20025;-77
2022/09/03 04:17:03;;;;;;;2.40;1.42;;;16.60;77.50;;;;;;5043658;28;20033;-77
2022/09/03 04:19:29;;;;;;;1.58;1.00;;;16.60;77.70;;;;;;5041371;28;20118;-76
2022/09/03 04:21:55;;;;;;;3.05;1.00;;;16.50;77.90;;;;;;5039727;28;20028;-77
2022/09/03 04:24:23;;;;;;;4.40;1.25;;;16.50;78.20;;;;;;5042339;28;20029;-77
2022/09/03 04:26:49;;;;;;;4.72;1.30;;;16.50;78.60;;;;;;5042132;28;20033;-78
2022/09/03 04:29:15;;;;;;;2.33;1.00;;;16.50;78.60;;;;;;5041834;28;20043;-77
2022/09/03 04:32:51;;;;;;;3.47;1.23;;;16.50;78.80;;;;;;5041355;28;20037;-75
2022/09/03 04:34:27;;;;;;;1.67;1.00;;;16.40;79.10;;;;;;5038423;28;20108;-77
2022/09/03 04:36:53;;;;;;;2.13;1.30;;;16.40;79.20;;;;;;5041693;28;20025;-77
2022/09/03 04:39:19;;;;;;;2.50;1.15;;;16.40;79.30;;;;;;5037608;28;20048;-74
2022/09/03 04:41:44;;;;;;;2.78;1.20;;;16.40;79.80;;;;;;5043558;28;20013;-77
2022/09/03 04:44:11;;;;;;;0.90;0.90;;;16.40;80.00;;;;;;5045300;28;20044;-77
2022/09/03 04:46:36;;;;;;;1.38;1.20;;;16.40;80.00;;;;;;5047562;28;20836;-77
2022/09/03 04:49:06;;;;;;;3.20;1.20;;;16.40;80.10;;;;;;5041487;28;20067;-77
2022/09/03 04:51:31;;;;;;;1.30;1.20;;;16.40;80.20;;;;;;5044758;28;20021;-77
2022/09/03 04:54:02;;;;;;;4.90;0.98;;;16.40;80.40;;;;;;5044875;28;20465;-77
2022/09/03 04:56:33;;;;;;;3.72;1.40;;;16.40;80.60;;;;;;5041050;28;20033;-77
2022/09/03 04:59:04;;;;;;;1.67;0.95;;;16.40;80.80;;;;;;5056205;28;20454;-78
2022/09/03 05:01:32;;;;;;;1.70;0.98;;;16.40;80.70;;;;;;5038184;28;20030;-77
2022/09/03 05:03:58;;;;;;;2.17;1.13;;;16.40;80.80;;;;;;5037714;28;20037;-77
2022/09/03 05:06:26;;;;;;;3.28;1.00;;;16.40;80.80;;;;;;5042681;28;20025;-76
2022/09/03 05:08:57;;;;;;;2.85;0.93;;;16.40;81.00;;;;;;5043398;28;20031;-76
2022/09/03 05:11:25;;;;;;;1.15;0.90;;;16.40;81.30;;;;;;5041359;28;20040;-76
2022/09/03 05:13:54;;;;;;;7.18;0.90;;;16.40;81.40;;;;;;5041559;28;20028;-77
2022/09/03 05:16:20;;;;;;;1.52;1.00;;;16.40;81.30;;;;;;5039528;28;20025;-76
2022/09/03 05:18:47;;;;;;;2.13;0.90;;;16.40;82.10;;;;;;5039054;28;20089;-77
2022/09/03 05:21:17;;;;;;;12.07;1.23;;;16.50;81.50;;;;;;5040240;28;20324;-78
2022/09/03 05:23:49;;;;;;;5.32;0.93;;;16.50;81.40;;;;;;5037879;28;20144;-77
2022/09/03 05:26:17;;;;;;;2.10;0.90;;;16.50;81.50;;;;;;5044184;28;20029;-77
2022/09/03 05:28:43;;;;;;;2.13;0.95;;;16.50;81.60;;;;;;5042104;28;20026;-78
2022/09/03 05:31:11;;;;;;;2.92;0.98;;;16.50;81.50;;;;;;5045013;28;20060;-77
2022/09/03 05:33:39;;;;;;;1.95;0.90;;;16.60;81.60;;;;;;5036709;28;20025;-78
2022/09/03 05:36:07;;;;;;;1.55;0.85;;;16.70;81.40;;;;;;5038266;28;20021;-77
2022/09/03 05:38:32;;;;;;;7.18;1.08;;;16.70;81.10;;;;;;5042358;28;20461;-78
2022/09/03 05:41:00;;;;;;;1.13;0.80;;;16.80;80.80;;;;;;5050128;28;20025;-78
2022/09/03 05:43:27;;;;;;;5.20;1.00;;;16.90;80.40;;;;;;5038301;28;20025;-78
2022/09/03 05:46:10;;;;;;;1.85;1.20;;;16.90;80.40;;;;;;5048637;28;20056;-78
2022/09/03 05:48:37;;;;;;;3.20;1.23;;;17.00;80.30;;;;;;5037667;28;20064;-78
2022/09/03 05:51:04;;;;;;;3.60;1.20;;;17.00;80.10;;;;;;5044059;28;20028;-78
2022/09/03 05:53:32;;;;;;;3.03;0.98;;;17.00;80.00;;;;;;5042638;28;20036;-78
2022/09/03 05:56:03;;;;;;;3.20;1.00;;;17.00;80.10;;;;;;5043961;28;20028;-78
2022/09/03 05:58:38;;;;;;;4.93;0.90;;;17.10;80.00;;;;;;5045119;28;20029;-76
2022/09/03 06:01:28;;;;;;;2.50;1.00;;;17.20;79.90;;;;;;5044542;28;20021;-78
2022/09/03 06:04:02;;;;;;;2.10;1.15;;;17.20;79.80;;;;;;5042923;28;20029;-80
2022/09/03 06:06:30;;;;;;;7.13;1.00;;;17.30;79.50;;;;;;5056152;28;20049;-78
2022/09/03 06:08:58;;;;;;;4.10;1.30;;;17.40;79.20;;;;;;5040402;28;20029;-78
2022/09/03 06:11:28;;;;;;;1.58;1.10;;;17.50;78.70;;;;;;5040245;28;20022;-80
2022/09/03 06:14:06;;;;;;;6.18;1.23;;;17.60;78.20;;;;;;5044963;28;20071;-80
2022/09/03 06:16:34;;;;;;;1.67;0.95;;;17.60;78.00;;;;;;5049455;28;20021;-80
2022/09/03 06:19:00;;;;;;;1.50;1.00;;;17.70;77.80;;;;;;5045868;28;20060;-77
2022/09/03 06:21:27;;;;;;;4.03;1.10;;;17.80;77.50;;;;;;5049859;28;20028;-80
2022/09/03 06:23:57;;;;;;;1.33;0.95;;;17.80;77.30;;;;;;5048866;28;20077;-77
2022/09/03 06:26:24;;;;;;;1.77;1.23;;;17.90;77.20;;;;;;5047797;28;20096;-78
2022/09/03 06:28:53;;;;;;;4.85;1.15;;;18.00;77.00;;;;;;5050591;28;20159;-77
2022/09/03 06:31:20;;;;;;;3.13;0.80;;;18.10;76.50;;;;;;5043449;28;20874;-78
2022/09/03 06:33:46;;;;;;;1.48;1.20;;;18.20;75.90;;;;;;5038348;28;20029;-77
2022/09/03 06:36:17;;;;;;;2.05;0.93;;;18.20;75.70;;;;;;5052831;28;20020;-78
2022/09/03 06:38:43;;;;;;;1.52;1.05;;;18.30;75.30;;;;;;5040960;28;20065;-77
2022/09/03 06:41:22;;;;;;;4.03;1.23;;;18.40;74.90;;;;;;5047667;28;20035;-77
2022/09/03 06:43:49;;;;;;;9.75;1.10;;;18.50;74.50;;;;;;5040104;28;20517;-78
2022/09/03 06:46:17;;;;;;;2.03;0.82;;;18.60;74.40;;;;;;5038736;28;20049;-77
2022/09/03 06:48:49;;;;;;;2.65;0.93;;;18.60;74.00;;;;;;5042091;28;20029;-78
2022/09/03 06:51:18;;;;;;;4.78;1.17;;;18.70;73.70;;;;;;5047658;28;20025;-78
2022/09/03 06:53:48;;;;;;;2.45;1.13;;;18.80;73.60;;;;;;5045390;28;20048;-78
2022/09/03 06:56:25;;;;;;;2.25;1.30;;;18.90;73.40;;;;;;5044321;28;20021;-78
2022/09/03 06:58:55;;;;;;;2.45;1.20;;;19.00;72.90;;;;;;5038588;28;20116;-78
2022/09/03 07:01:24;;;;;;;6.75;1.10;;;19.10;72.60;;;;;;5043302;28;20054;-76
2022/09/03 07:03:55;;;;;;;4.95;1.30;;;19.10;72.10;;;;;;5035736;28;20037;-77
2022/09/03 07:06:26;;;;;;;4.80;1.52;;;19.30;72.20;;;;;;5053359;28;20112;-77
2022/09/03 07:08:52;;;;;;;1.35;1.10;;;19.50;71.70;;;;;;5039846;28;20052;-78
2022/09/03 07:11:21;;;;;;;7.13;1.10;;;19.50;71.20;;;;;;5039138;28;20068;-77
2022/09/03 07:13:54;;;;;;;5.38;1.25;;;19.70;70.90;;;;;;5037133;28;20459;-77
2022/09/03 07:16:28;;;;;;;2.67;1.52;;;19.80;70.00;;;;;;5055752;28;20080;-77
2022/09/03 07:18:56;;;;;;;3.45;1.30;;;19.90;69.70;;;;;;5037666;28;20061;-77
2022/09/03 07:21:27;;;;;;;6.55;1.25;;;20.10;69.30;;;;;;5040310;28;20025;-77
2022/09/03 07:23:54;;;;;;;3.58;1.25;;;20.20;68.60;;;;;;5036842;28;20022;-77
2022/09/03 07:26:23;;;;;;;4.15;1.60;;;20.20;67.80;;;;;;5036966;28;20124;-76
2022/09/03 07:28:53;;;;;;;4.65;1.23;;;20.30;67.60;;;;;;5037899;28;20108;-78
2022/09/03 07:31:31;;;;;;;2.80;1.55;;;20.40;67.30;;;;;;5033533;28;20025;-75
2022/09/03 07:33:58;;;;;;;7.13;1.27;;;20.40;67.10;;;;;;5038268;28;20112;-78
2022/09/03 07:36:26;;;;;;;263.60;135.10;;;20.50;66.90;;;;;;5036712;28;20088;-73
2022/09/03 07:38:57;;;;;;;460.38;192.27;;;20.50;66.60;;;;;;5032841;28;20045;-74
2022/09/03 07:41:24;;;;;;;5.65;1.25;;;20.60;66.20;;;;;;5026993;28;20036;-77
2022/09/03 07:43:51;;;;;;;1.98;1.10;;;20.80;65.50;;;;;;5020621;28;20022;-76
2022/09/03 07:46:21;;;;;;;2.20;1.10;;;20.80;65.40;;;;;;5028939;28;20083;-75
2022/09/03 07:48:49;;;;;;;4.80;1.10;;;21.00;65.40;;;;;;5025297;28;20101;-78
2022/09/03 07:51:16;;;;;;;7.45;1.20;;;21.20;64.80;;;;;;5027359;28;20034;-77
2022/09/03 07:53:47;;;;;;;1.50;0.93;;;21.40;64.50;;;;;;5021774;28;20045;-78
2022/09/03 07:56:16;;;;;;;4.47;1.10;;;21.50;63.30;;;;;;5033863;28;20029;-78
2022/09/03 07:58:42;;;;;;;3.42;1.10;;;21.50;63.20;;;;;;5032658;28;20450;-78
2022/09/03 08:01:11;;;;;;;5.78;1.20;;;21.70;63.10;;;;;;5028869;28;20029;-72
2022/09/03 08:03:41;;;;;;;60.55;26.20;;;21.80;62.60;;;;;;5025267;28;20040;-73
2022/09/03 08:06:07;;;;;;;171.75;72.60;;;21.90;61.80;;;;;;5023335;28;20026;-76
2022/09/03 08:08:36;;;;;;;6.32;1.10;;;22.00;61.60;;;;;;5026798;28;20040;-75
2022/09/03 08:11:08;;;;;;;1.55;1.40;;;22.20;60.80;;;;;;5029163;28;20057;-75
2022/09/03 08:13:34;;;;;;;3.87;1.30;;;22.40;60.00;;;;;;5021320;28;20026;-75
2022/09/03 08:16:03;;;;;;;1.35;1.08;;;22.60;59.80;;;;;;5026006;28;20040;-75
2022/09/03 08:18:30;;;;;;;9.05;1.33;;;22.90;58.90;;;;;;5028265;28;20017;-76
2022/09/03 08:21:01;;;;;;;2.00;0.98;;;23.20;58.70;;;;;;5026910;28;20029;-77
2022/09/03 08:23:26;;;;;;;10.75;1.20;;;23.40;57.70;;;;;;5035637;28;20336;-78
2022/09/03 08:26:00;;;;;;;3.60;1.20;;;23.40;57.50;;;;;;5035785;28;20036;-76
2022/09/03 08:28:26;;;;;;;3.25;1.00;;;23.50;57.30;;;;;;5032296;28;20091;-76
2022/09/03 08:30:56;;;;;;;1.92;0.98;;;23.70;57.00;;;;;;5029171;28;20098;-76
2022/09/03 08:33:35;;;;;;;1.58;1.08;;;23.60;56.50;;;;;;5030371;28;20489;-76
2022/09/03 08:36:21;;;;;;;2.05;1.50;;;23.90;56.40;;;;;;5025772;28;20113;-77
2022/09/03 08:38:51;;;;;;;6.22;1.10;;;24.20;55.70;;;;;;5035512;28;20083;-78
2022/09/03 08:41:28;;;;;;;1.75;1.40;;;24.40;55.50;;;;;;5026163;28;20176;-76
2022/09/03 08:44:29;;;;;;;1.92;1.35;;;24.60;54.80;;;;;;5030767;28;20140;-76
2022/09/03 08:47:18;;;;;;;59.33;24.83;;;24.80;54.50;;;;;;5035062;28;20029;-76
2022/09/03 08:50:09;;;;;;;17.88;8.98;;;25.00;54.10;;;;;;5028761;28;20482;-76
2022/09/03 08:53:00;;;;;;;5.30;1.58;;;25.40;53.60;;;;;;5032182;28;20029;-75
2022/09/03 08:55:26;;;;;;;6.15;1.20;;;25.70;52.80;;;;;;5031705;28;20422;-76
2022/09/03 08:58:14;;;;;;;2.30;1.15;;;25.80;52.50;;;;;;5032761;28;20040;-76
2022/09/03 09:00:48;;;;;;;1.65;1.42;;;26.00;52.30;;;;;;5028141;28;20042;-76
2022/09/03 09:03:26;;;;;;;1.55;1.45;;;26.20;51.60;;;;;;5033347;28;20036;-76
2022/09/03 09:06:06;;;;;;;3.17;1.58;;;26.30;51.50;;;;;;5032922;28;20064;-75
2022/09/03 09:08:58;;;;;;;5.63;1.60;;;26.60;50.90;;;;;;5028717;28;20064;-74
2022/09/03 09:11:35;;;;;;;6.35;1.67;;;26.70;50.90;;;;;;5022035;28;20026;-74
2022/09/03 09:14:12;;;;;;;3.58;1.83;;;26.70;50.50;;;;;;5029482;28;20466;-74
2022/09/03 09:16:59;;;;;;;6.93;1.60;;;27.20;50.00;;;;;;5036997;28;20021;-74
2022/09/03 09:19:53;;;;;;;9.00;1.63;;;27.40;49.90;;;;;;5030213;28;20029;-74
2022/09/03 09:22:34;;;;;;;9.02;1.70;;;27.40;49.50;;;;;;5032882;28;20339;-74
2022/09/03 09:25:07;;;;;;;4.07;1.40;;;27.70;49.80;;;;;;5021605;28;20044;-73
2022/09/03 09:27:33;;;;;;;7.22;2.05;;;28.10;49.60;;;;;;5024220;28;20403;-74
2022/09/03 09:30:03;;;;;;;107.10;55.65;;;28.50;47.50;;;;;;5028940;28;20072;-73
2022/09/03 09:32:30;;;;;;;213.88;103.55;;;28.80;47.50;;;;;;5032044;28;20629;-75
2022/09/03 09:34:55;;;;;;;8.27;1.52;;;29.30;47.30;;;;;;5030337;28;20102;-75
2022/09/03 09:37:21;;;;;;;1.55;1.30;;;29.40;46.40;;;;;;5030318;28;20460;-74
2022/09/03 09:39:58;;;;;;;4.40;1.60;;;29.50;46.50;;;;;;5033857;28;20026;-76
2022/09/03 09:42:24;;;;;;;2.13;1.60;;;29.80;46.00;;;;;;5031637;28;20185;-76
2022/09/03 09:44:54;;;;;;;5.97;1.80;;;30.10;45.50;;;;;;5031157;28;20673;-77
2022/09/03 09:47:30;;;;;;;4.70;1.80;;;30.10;45.40;;;;;;5024609;28;20159;-74
2022/09/03 09:49:59;;;;;;;4.07;2.45;;;30.40;45.20;;;;;;5026662;28;20038;-75
2022/09/03 09:52:30;;;;;;;8.93;3.55;;;30.70;44.80;;;;;;5029823;28;20017;-76
2022/09/03 09:55:19;;;;;;;146.15;70.43;;;30.90;44.20;;;;;;5028115;28;20048;-75
2022/09/03 09:57:45;;;;;;;2.47;1.60;;;31.00;43.70;;;;;;5030694;28;20108;-75
2022/09/03 10:00:16;;;;;;;1.60;1.50;;;31.10;44.10;;;;;;5029561;28;20171;-74
2022/09/03 10:02:55;;;;;;;4.78;2.08;;;31.30;43.20;;;;;;5026782;28;20018;-73
2022/09/03 10:05:32;;;;;;;8.45;1.80;;;31.50;42.40;;;;;;5023364;28;20067;-72
2022/09/03 10:08:04;;;;;;;3.80;1.80;;;31.70;43.00;;;;;;5026875;28;20044;-72
2022/09/03 10:10:36;;;;;;;2.95;1.60;;;31.70;41.90;;;;;;5029173;28;20096;-73
2022/09/03 10:13:12;;;;;;;3.20;1.55;;;31.80;41.40;;;;;;5026998;28;20044;-73
2022/09/03 10:16:17;;;;;;;3.65;1.88;;;31.70;41.70;;;;;;5026930;28;20022;-75
2022/09/03 10:18:58;;;;;;;3.92;1.80;;;31.20;42.30;;;;;;4990118;28;20200;-74
2022/09/03 10:21:35;;;;;;;38.17;20.50;;;31.00;42.50;;;;;;5011126;28;20371;-76
2022/09/03 10:24:28;;;;;;;10.38;1.90;;;31.00;42.80;;;;;;4993415;28;20117;-72
2022/09/03 10:26:54;;;;;;;3.05;2.08;;;30.70;43.10;;;;;;5008717;28;20037;-76
2022/09/03 10:29:28;;;;;;;2.88;2.00;;;30.70;43.60;;;;;;5006945;28;20493;-75
2022/09/03 10:32:10;;;;;;;3.70;1.52;;;31.20;42.70;;;;;;5009701;28;20038;-76
2022/09/03 10:34:57;;;;;;;2.10;1.88;;;31.60;42.20;;;;;;5003569;28;20044;-75
2022/09/03 10:37:31;;;;;;;8.15;1.90;;;31.70;41.80;;;;;;5003737;28;20070;-75
2022/09/03 10:40:29;;;;;;;4.97;1.70;;;31.60;42.60;;;;;;5000802;28;20041;-75
2022/09/03 10:43:30;;;;;;;3.08;2.15;;;31.40;42.10;;;;;;5006325;28;20037;-76
2022/09/03 10:46:02;;;;;;;5.30;2.25;;;31.00;43.00;;;;;;5010637;28;20144;-74
2022/09/03 10:48:42;;;;;;;4.30;2.17;;;30.70;43.20;;;;;;5012971;28;20061;-76
2022/09/03 10:51:19;;;;;;;4.03;1.70;;;30.70;43.10;;;;;;5028132;28;20064;-76
2022/09/03 10:53:51;;;;;;;2.00;1.90;;;30.90;43.00;;;;;;5019570;28;20036;-75
2022/09/03 10:56:21;;;;;;;113.03;48.85;;;31.10;42.70;;;;;;5026070;28;20030;-75
2022/09/03 10:58:58;;;;;;;6.13;1.92;;;31.40;43.40;;;;;;5025085;28;20021;-73
2022/09/03 11:01:44;;;;;;;2.20;2.05;;;31.50;42.40;;;;;;5010421;28;20616;-74
2022/09/03 11:04:33;;;;;;;5.13;2.53;;;32.10;41.80;;;;;;5020362;28;20172;-73
2022/09/03 11:07:06;;;;;;;3.47;2.45;;;32.10;41.10;;;;;;5029894;28;20475;-75
2022/09/03 11:09:45;;;;;;;2.88;2.10;;;32.20;40.90;;;;;;5030541;28;20045;-74
2022/09/03 11:12:33;;;;;;;5.03;1.98;;;32.30;40.90;;;;;;5036078;28;20030;-76
2022/09/03 11:15:04;;;;;;;4.50;2.00;;;32.20;41.00;;;;;;5023333;28;20153;-74
2022/09/03 11:17:41;;;;;;;2.25;2.05;;;32.10;41.40;;;;;;5026830;28;20445;-75
2022/09/03 11:20:15;;;;;;;3.78;2.00;;;31.90;41.30;;;;;;5026952;28;20057;-75
2022/09/03 11:22:44;;;;;;;2.15;2.05;;;31.90;41.50;;;;;;5022909;28;20076;-76
2022/09/03 11:25:12;;;;;;;2.38;2.17;;;32.20;41.10;;;;;;5023505;28;20147;-75
2022/09/03 11:27:40;;;;;;;2.03;1.92;;;32.10;41.20;;;;;;5025713;28;20033;-73
2022/09/03 11:30:13;;;;;;;4.60;2.58;;;32.40;41.00;;;;;;5023200;28;20038;-74
2022/09/03 11:32:42;;;;;;;;;;;32.50;40.70;;;;;;5025107;28;20117;-75
2022/09/03 11:35:28;;;;;;;3.53;2.13;;;32.00;41.00;;;;;;5025921;28;19952;-76
2022/09/03 11:37:58;;;;;;;3.83;2.10;;;31.90;41.40;;;;;;5030467;28;20063;-75
2022/09/03 11:40:36;;;;;;;2.88;2.33;;;32.00;41.40;;;;;;5028824;28;20040;-77
2022/09/03 11:43:26;;;;;;;2.50;1.98;;;32.20;41.10;;;;;;5038532;28;20041;-71
2022/09/03 11:46:21;;;;;;;8.40;2.28;;;32.60;40.70;;;;;;5021175;28;20018;-76
2022/09/03 11:48:54;;;;;;;2.55;2.17;;;33.10;40.30;;;;;;5018699;28;20033;-74
2022/09/03 11:51:28;;;;;;;9.10;2.42;;;33.10;39.90;;;;;;5024765;28;20133;-76
2022/09/03 11:54:12;;;;;;;2.58;2.25;;;32.70;40.40;;;;;;5032868;28;20025;-76
2022/09/03 11:56:42;;;;;;;4.35;2.20;;;32.40;40.90;;;;;;5033914;28;20013;-76
2022/09/03 11:59:19;;;;;;;2.50;2.33;;;32.60;40.50;;;;;;5037460;28;20060;-77
2022/09/03 12:02:20;;;;;;;5.80;2.17;;;32.90;40.30;;;;;;5035228;28;20021;-75
2022/09/03 12:04:52;;;;;;;3.03;2.58;;;33.10;40.00;;;;;;5019595;28;20168;-75
2022/09/03 12:07:37;;;;;;;3.30;2.05;;;33.30;39.60;;;;;;5025886;28;20022;-75
2022/09/03 12:10:20;;;;;;;2.83;2.47;;;33.50;39.40;;;;;;5025968;28;20029;-75
2022/09/03 12:13:28;;;;;;;3.83;2.35;;;33.70;39.80;;;;;;5027617;28;20076;-74
2022/09/03 12:16:07;;;;;;;2.88;2.65;;;34.10;39.00;;;;;;5030184;28;20057;-75
2022/09/03 12:18:36;;;;;;;5.75;2.53;;;33.70;39.20;;;;;;5029669;28;20393;-74
2022/09/03 12:21:05;;;;;;;4.20;2.40;;;33.10;39.00;;;;;;5033791;28;20438;-75
2022/09/03 12:23:47;;;;;;;6.05;3.00;;;33.10;39.80;;;;;;5030024;28;20036;-75
2022/09/03 12:26:26;;;;;;;3.63;2.90;;;32.90;40.30;;;;;;5030579;28;20113;-76
2022/09/03 12:28:59;;;;;;;4.57;2.90;;;33.00;40.40;;;;;;5026967;28;20030;-75
2022/09/03 12:31:30;;;;;;;3.30;2.65;;;33.20;39.70;;;;;;5029097;28;20132;-77
2022/09/03 12:34:02;;;;;;;2.75;2.33;;;33.30;39.90;;;;;;5023792;28;20056;-75
2022/09/03 12:36:42;;;;;;;6.38;2.60;;;33.80;39.50;;;;;;5032422;28;20025;-78
2022/09/03 12:39:25;;;;;;;23.42;10.50;;;33.60;39.90;;;;;;5028272;28;20392;-77
2022/09/03 12:41:56;;;;;;;3.80;2.58;;;33.30;40.60;;;;;;5034371;28;20025;-76
2022/09/03 12:44:30;;;;;;;3.83;2.42;;;33.60;40.70;;;;;;5034032;28;20052;-76
2022/09/03 12:47:16;;;;;;;2.53;2.33;;;33.30;40.70;;;;;;5028019;28;20059;-78
2022/09/03 12:49:51;;;;;;;3.15;1.95;;;33.50;40.80;;;;;;5042232;28;20082;-78
2022/09/03 12:52:28;;;;;;;2.63;2.42;;;33.30;41.10;;;;;;5028623;28;20040;-82
2022/09/03 12:55:01;;;;;;;3.80;2.40;;;33.10;40.80;;;;;;5036270;28;20119;-81
2022/09/03 12:57:39;;;;;;;6.63;2.53;;;33.10;41.30;;;;;;5021362;28;20037;-81
2022/09/03 13:00:08;;;;;;;4.35;2.17;;;33.10;41.50;;;;;;5029165;28;20086;-79
2022/09/03 13:02:58;;;;;;;2.65;2.45;;;33.30;41.20;;;;;;5025859;28;20014;-82
2022/09/03 13:05:48;;;;;;;2.70;2.50;;;32.80;41.00;;;;;;5031340;28;20013;-82
2022/09/03 13:08:21;;;;;;;2.10;2.00;;;32.30;41.60;;;;;;5034250;28;20013;-80
2022/09/03 13:10:52;;;;;;;3.10;2.30;;;32.50;41.80;;;;;;5032828;28;20040;-82
2022/09/03 13:13:25;;;;;;;2.35;2.25;;;32.90;41.10;;;;;;5030163;28;20075;-83
2022/09/03 13:16:28;;;;;;;9.85;3.00;;;33.20;40.40;;;;;;5035179;28;20030;-81
2022/09/03 13:19:19;;;;;;;3.15;2.35;;;33.10;40.80;;;;;;5012751;28;20037;-82